sensor_id;sensor_type;location;lat;lon;timestamp;temperature;humidity
21275;DHT22;36472;52.170;20.884;2023-07-29T00:00:30;32.90;54.70
21275;DHT22;36472;52.170;20.884;2023-07-29T00:03:21;32.90;54.80
21275;DHT22;36472;52.170;20.884;2023-07-29T00:05:50;32.90;54.80
21275;DHT22;36472;52.170;20.884;2023-07-29T00:08:19;32.90;54.90
21275;DHT22;36472;52.170;20.884;2023-07-29T00:10:48;32.80;54.70
21275;DHT22;36472;52.170;20.884;2023-07-29T00:13:17;32.80;54.80
21275;DHT22;36472;52.170;20.884;2023-07-29T00:15:49;32.80;54.70
21275;DHT22;36472;52.170;20.884;2023-07-29T00:18:17;32.80;54.50
21275;DHT22;36472;52.170;20.884;2023-07-29T00:20:48;32.80;54.70
21275;DHT22;36472;52.170;20.884;2023-07-29T00:23:17;32.80;54.90
21275;DHT22;36472;52.170;20.884;2023-07-29T00:25:47;32.80;54.80
21275;DHT22;36472;52.170;20.884;2023-07-29T00:28:16;32.70;54.80
21275;DHT22;36472;52.170;20.884;2023-07-29T00:30:49;32.70;54.90
21275;DHT22;36472;52.170;20.884;2023-07-29T00:33:21;32.70;54.80
21275;DHT22;36472;52.170;20.884;2023-07-29T00:35:51;32.70;54.80
21275;DHT22;36472;52.170;20.884;2023-07-29T00:38:20;32.70;54.90
21275;DHT22;36472;52.170;20.884;2023-07-29T00:40:49;32.70;54.90
21275;DHT22;36472;52.170;20.884;2023-07-29T00:43:18;32.70;55.00
21275;DHT22;36472;52.170;20.884;2023-07-29T00:45:48;32.70;55.00
21275;DHT22;36472;52.170;20.884;2023-07-29T00:48:18;32.70;55.00
21275;DHT22;36472;52.170;20.884;2023-07-29T00:50:50;32.70;55.00
21275;DHT22;36472;52.170;20.884;2023-07-29T00:53:20;32.70;55.00
21275;DHT22;36472;52.170;20.884;2023-07-29T00:55:50;32.70;55.00
21275;DHT22;36472;52.170;20.884;2023-07-29T00:58:19;32.80;55.00
21275;DHT22;36472;52.170;20.884;2023-07-29T01:00:49;32.70;55.00
21275;DHT22;36472;52.170;20.884;2023-07-29T01:03:18;32.70;55.10
21275;DHT22;36472;52.170;20.884;2023-07-29T01:06:01;32.70;55.00
21275;DHT22;36472;52.170;20.884;2023-07-29T01:08:46;32.70;55.00
21275;DHT22;36472;52.170;20.884;2023-07-29T01:11:27;32.70;55.10
21275;DHT22;36472;52.170;20.884;2023-07-29T01:14:10;32.70;55.10
21275;DHT22;36472;52.170;20.884;2023-07-29T01:16:52;32.80;55.20
21275;DHT22;36472;52.170;20.884;2023-07-29T01:19:47;32.80;55.10
21275;DHT22;36472;52.170;20.884;2023-07-29T01:22:25;32.80;55.10
21275;DHT22;36472;52.170;20.884;2023-07-29T01:24:57;32.80;55.10
21275;DHT22;36472;52.170;20.884;2023-07-29T01:27:27;32.80;55.10
21275;DHT22;36472;52.170;20.884;2023-07-29T01:29:56;32.80;55.10
21275;DHT22;36472;52.170;20.884;2023-07-29T01:32:31;32.80;55.10
21275;DHT22;36472;52.170;20.884;2023-07-29T01:35:15;32.70;55.10
21275;DHT22;36472;52.170;20.884;2023-07-29T01:37:53;32.70;55.10
21275;DHT22;36472;52.170;20.884;2023-07-29T01:40:28;32.70;55.00
21275;DHT22;36472;52.170;20.884;2023-07-29T01:42:58;32.70;55.10
21275;DHT22;36472;52.170;20.884;2023-07-29T01:45:28;32.70;55.10
21275;DHT22;36472;52.170;20.884;2023-07-29T01:47:59;32.70;55.00
21275;DHT22;36472;52.170;20.884;2023-07-29T01:50:28;32.70;55.00
21275;DHT22;36472;52.170;20.884;2023-07-29T01:52:57;32.60;55.10
21275;DHT22;36472;52.170;20.884;2023-07-29T01:55:28;32.60;55.10
21275;DHT22;36472;52.170;20.884;2023-07-29T01:57:57;32.60;55.00
21275;DHT22;36472;52.170;20.884;2023-07-29T02:00:27;32.60;54.90
21275;DHT22;36472;52.170;20.884;2023-07-29T02:02:56;32.60;54.90
21275;DHT22;36472;52.170;20.884;2023-07-29T02:05:25;32.60;54.90
21275;DHT22;36472;52.170;20.884;2023-07-29T02:07:54;32.60;55.00
21275;DHT22;36472;52.170;20.884;2023-07-29T02:10:23;32.60;54.90
21275;DHT22;36472;52.170;20.884;2023-07-29T02:12:53;32.60;54.90
21275;DHT22;36472;52.170;20.884;2023-07-29T02:15:22;32.50;54.80
21275;DHT22;36472;52.170;20.884;2023-07-29T02:17:52;32.50;54.90
21275;DHT22;36472;52.170;20.884;2023-07-29T02:20:20;32.50;55.00
21275;DHT22;36472;52.170;20.884;2023-07-29T02:22:51;32.50;54.90
21275;DHT22;36472;52.170;20.884;2023-07-29T02:25:20;32.50;54.90
21275;DHT22;36472;52.170;20.884;2023-07-29T02:27:49;32.40;55.00
21275;DHT22;36472;52.170;20.884;2023-07-29T02:30:20;32.40;55.10
21275;DHT22;36472;52.170;20.884;2023-07-29T02:32:50;32.40;55.10
21275;DHT22;36472;52.170;20.884;2023-07-29T02:35:19;32.40;55.20
21275;DHT22;36472;52.170;20.884;2023-07-29T02:37:48;32.40;55.00
21275;DHT22;36472;52.170;20.884;2023-07-29T02:40:20;32.40;55.10
21275;DHT22;36472;52.170;20.884;2023-07-29T02:42:50;32.40;54.90
21275;DHT22;36472;52.170;20.884;2023-07-29T02:45:20;32.40;54.90
21275;DHT22;36472;52.170;20.884;2023-07-29T02:47:50;32.40;54.80
21275;DHT22;36472;52.170;20.884;2023-07-29T02:50:18;32.40;54.80
21275;DHT22;36472;52.170;20.884;2023-07-29T02:52:47;32.40;54.80
21275;DHT22;36472;52.170;20.884;2023-07-29T02:55:18;32.40;54.80
21275;DHT22;36472;52.170;20.884;2023-07-29T02:57:47;32.40;54.60
21275;DHT22;36472;52.170;20.884;2023-07-29T03:00:16;32.40;55.40
21275;DHT22;36472;52.170;20.884;2023-07-29T03:02:46;32.40;54.50
21275;DHT22;36472;52.170;20.884;2023-07-29T03:05:16;32.40;54.70
21275;DHT22;36472;52.170;20.884;2023-07-29T03:07:45;32.50;54.60
21275;DHT22;36472;52.170;20.884;2023-07-29T03:10:14;32.40;54.30
21275;DHT22;36472;52.170;20.884;2023-07-29T03:12:43;32.40;54.70
21275;DHT22;36472;52.170;20.884;2023-07-29T03:15:12;32.40;54.60
21275;DHT22;36472;52.170;20.884;2023-07-29T03:17:42;32.40;54.50
21275;DHT22;36472;52.170;20.884;2023-07-29T03:20:12;32.40;54.60
21275;DHT22;36472;52.170;20.884;2023-07-29T03:22:41;32.40;54.60
21275;DHT22;36472;52.170;20.884;2023-07-29T03:25:10;32.30;54.50
21275;DHT22;36472;52.170;20.884;2023-07-29T03:27:39;32.30;54.50
21275;DHT22;36472;52.170;20.884;2023-07-29T03:30:08;32.40;54.50
21275;DHT22;36472;52.170;20.884;2023-07-29T03:32:43;32.30;54.60
21275;DHT22;36472;52.170;20.884;2023-07-29T03:35:14;32.30;54.60
21275;DHT22;36472;52.170;20.884;2023-07-29T03:37:44;32.30;54.40
21275;DHT22;36472;52.170;20.884;2023-07-29T03:40:13;32.30;54.10
21275;DHT22;36472;52.170;20.884;2023-07-29T03:42:42;32.30;54.10
21275;DHT22;36472;52.170;20.884;2023-07-29T03:45:11;32.20;54.10
21275;DHT22;36472;52.170;20.884;2023-07-29T03:47:40;32.20;54.40
21275;DHT22;36472;52.170;20.884;2023-07-29T03:50:09;32.20;54.30
21275;DHT22;36472;52.170;20.884;2023-07-29T03:52:40;32.20;54.50
21275;DHT22;36472;52.170;20.884;2023-07-29T03:55:09;32.20;54.50
21275;DHT22;36472;52.170;20.884;2023-07-29T03:57:38;32.20;54.50
21275;DHT22;36472;52.170;20.884;2023-07-29T04:00:07;32.20;54.50
21275;DHT22;36472;52.170;20.884;2023-07-29T04:02:46;32.20;54.60
21275;DHT22;36472;52.170;20.884;2023-07-29T04:05:16;32.20;54.40
21275;DHT22;36472;52.170;20.884;2023-07-29T04:07:46;32.20;54.70
21275;DHT22;36472;52.170;20.884;2023-07-29T04:10:15;32.10;54.50
21275;DHT22;36472;52.170;20.884;2023-07-29T04:12:45;32.10;54.60
21275;DHT22;36472;52.170;20.884;2023-07-29T04:15:13;32.10;54.40
21275;DHT22;36472;52.170;20.884;2023-07-29T04:17:42;32.20;54.60
21275;DHT22;36472;52.170;20.884;2023-07-29T04:20:11;32.20;55.60
21275;DHT22;36472;52.170;20.884;2023-07-29T04:22:41;32.20;54.80
21275;DHT22;36472;52.170;20.884;2023-07-29T04:25:11;32.20;54.70
21275;DHT22;36472;52.170;20.884;2023-07-29T04:27:41;32.20;54.80
21275;DHT22;36472;52.170;20.884;2023-07-29T04:30:10;32.20;54.80
21275;DHT22;36472;52.170;20.884;2023-07-29T04:32:39;32.20;55.00
21275;DHT22;36472;52.170;20.884;2023-07-29T04:35:09;32.20;54.80
21275;DHT22;36472;52.170;20.884;2023-07-29T04:37:38;32.30;54.70
21275;DHT22;36472;52.170;20.884;2023-07-29T04:40:08;32.30;54.80
21275;DHT22;36472;52.170;20.884;2023-07-29T04:42:39;32.20;54.90
21275;DHT22;36472;52.170;20.884;2023-07-29T04:45:09;32.20;55.10
21275;DHT22;36472;52.170;20.884;2023-07-29T04:47:38;32.20;55.30
21275;DHT22;36472;52.170;20.884;2023-07-29T04:50:08;32.30;55.20
21275;DHT22;36472;52.170;20.884;2023-07-29T04:52:38;32.20;54.90
21275;DHT22;36472;52.170;20.884;2023-07-29T04:55:07;32.20;54.80
21275;DHT22;36472;52.170;20.884;2023-07-29T04:57:36;32.40;54.40
21275;DHT22;36472;52.170;20.884;2023-07-29T05:00:07;32.40;54.60
21275;DHT22;36472;52.170;20.884;2023-07-29T05:02:37;32.40;54.70
21275;DHT22;36472;52.170;20.884;2023-07-29T05:05:06;32.40;54.50
21275;DHT22;36472;52.170;20.884;2023-07-29T05:07:37;32.30;54.80
21275;DHT22;36472;52.170;20.884;2023-07-29T05:10:07;32.30;54.80
21275;DHT22;36472;52.170;20.884;2023-07-29T05:12:37;32.40;54.80
21275;DHT22;36472;52.170;20.884;2023-07-29T05:15:08;32.40;54.60
21275;DHT22;36472;52.170;20.884;2023-07-29T05:17:38;32.40;54.50
21275;DHT22;36472;52.170;20.884;2023-07-29T05:20:08;32.40;54.50
21275;DHT22;36472;52.170;20.884;2023-07-29T05:22:38;32.40;54.20
21275;DHT22;36472;52.170;20.884;2023-07-29T05:25:07;32.40;54.30
21275;DHT22;36472;52.170;20.884;2023-07-29T05:27:37;32.40;54.30
21275;DHT22;36472;52.170;20.884;2023-07-29T05:30:08;32.40;54.40
21275;DHT22;36472;52.170;20.884;2023-07-29T05:32:37;32.40;54.60
21275;DHT22;36472;52.170;20.884;2023-07-29T05:35:07;32.40;54.40
21275;DHT22;36472;52.170;20.884;2023-07-29T05:37:38;32.40;54.50
21275;DHT22;36472;52.170;20.884;2023-07-29T05:40:08;32.40;54.70
21275;DHT22;36472;52.170;20.884;2023-07-29T05:42:39;32.40;54.20
21275;DHT22;36472;52.170;20.884;2023-07-29T05:45:10;32.40;54.40
21275;DHT22;36472;52.170;20.884;2023-07-29T05:47:39;32.40;54.80
21275;DHT22;36472;52.170;20.884;2023-07-29T05:50:09;32.50;54.90
21275;DHT22;36472;52.170;20.884;2023-07-29T05:52:38;32.50;54.50
21275;DHT22;36472;52.170;20.884;2023-07-29T05:55:08;32.60;54.40
21275;DHT22;36472;52.170;20.884;2023-07-29T05:57:37;32.60;54.60
21275;DHT22;36472;52.170;20.884;2023-07-29T06:00:12;32.60;54.90
21275;DHT22;36472;52.170;20.884;2023-07-29T06:02:41;32.60;54.30
21275;DHT22;36472;52.170;20.884;2023-07-29T06:05:15;32.60;54.10
21275;DHT22;36472;52.170;20.884;2023-07-29T06:07:44;32.70;54.30
21275;DHT22;36472;52.170;20.884;2023-07-29T06:10:16;32.70;54.50
21275;DHT22;36472;52.170;20.884;2023-07-29T06:12:47;32.70;54.50
21275;DHT22;36472;52.170;20.884;2023-07-29T06:15:18;32.70;54.00
21275;DHT22;36472;52.170;20.884;2023-07-29T06:17:50;32.70;54.30
21275;DHT22;36472;52.170;20.884;2023-07-29T06:20:23;32.70;54.30
21275;DHT22;36472;52.170;20.884;2023-07-29T06:22:53;32.80;54.40
21275;DHT22;36472;52.170;20.884;2023-07-29T06:25:21;32.70;54.20
21275;DHT22;36472;52.170;20.884;2023-07-29T06:27:51;32.80;54.30
21275;DHT22;36472;52.170;20.884;2023-07-29T06:30:21;32.80;54.00
21275;DHT22;36472;52.170;20.884;2023-07-29T06:32:50;32.80;54.40
21275;DHT22;36472;52.170;20.884;2023-07-29T06:35:19;32.80;54.60
21275;DHT22;36472;52.170;20.884;2023-07-29T06:37:48;32.80;54.00
21275;DHT22;36472;52.170;20.884;2023-07-29T06:40:17;32.90;53.60
21275;DHT22;36472;52.170;20.884;2023-07-29T06:42:47;32.90;53.20
21275;DHT22;36472;52.170;20.884;2023-07-29T06:45:15;32.90;53.80
21275;DHT22;36472;52.170;20.884;2023-07-29T06:47:46;32.90;54.00
21275;DHT22;36472;52.170;20.884;2023-07-29T06:50:15;33.00;53.80
21275;DHT22;36472;52.170;20.884;2023-07-29T06:52:45;33.00;53.50
21275;DHT22;36472;52.170;20.884;2023-07-29T06:55:13;33.00;53.60
21275;DHT22;36472;52.170;20.884;2023-07-29T06:57:43;33.00;53.30
21275;DHT22;36472;52.170;20.884;2023-07-29T07:00:11;33.10;54.10
21275;DHT22;36472;52.170;20.884;2023-07-29T07:02:41;33.10;54.40
21275;DHT22;36472;52.170;20.884;2023-07-29T07:05:12;33.10;53.80
21275;DHT22;36472;52.170;20.884;2023-07-29T07:07:41;33.10;54.50
21275;DHT22;36472;52.170;20.884;2023-07-29T07:10:10;33.20;54.90
21275;DHT22;36472;52.170;20.884;2023-07-29T07:12:39;33.20;54.10
21275;DHT22;36472;52.170;20.884;2023-07-29T07:15:08;33.20;53.60
21275;DHT22;36472;52.170;20.884;2023-07-29T07:17:37;33.30;53.90
21275;DHT22;36472;52.170;20.884;2023-07-29T07:20:07;33.30;53.70
21275;DHT22;36472;52.170;20.884;2023-07-29T07:22:38;33.20;52.70
21275;DHT22;36472;52.170;20.884;2023-07-29T07:25:08;33.50;52.50
21275;DHT22;36472;52.170;20.884;2023-07-29T07:27:37;33.50;53.00
21275;DHT22;36472;52.170;20.884;2023-07-29T07:30:07;33.60;53.30
21275;DHT22;36472;52.170;20.884;2023-07-29T07:32:36;33.70;53.30
21275;DHT22;36472;52.170;20.884;2023-07-29T07:35:05;33.80;52.70
21275;DHT22;36472;52.170;20.884;2023-07-29T07:37:35;33.70;52.50
21275;DHT22;36472;52.170;20.884;2023-07-29T07:40:06;34.00;51.20
21275;DHT22;36472;52.170;20.884;2023-07-29T07:42:35;33.80;51.80
21275;DHT22;36472;52.170;20.884;2023-07-29T07:45:05;33.80;52.10
21275;DHT22;36472;52.170;20.884;2023-07-29T07:47:34;34.00;52.60
21275;DHT22;36472;52.170;20.884;2023-07-29T07:50:04;33.80;52.20
21275;DHT22;36472;52.170;20.884;2023-07-29T07:52:33;33.90;53.10
21275;DHT22;36472;52.170;20.884;2023-07-29T07:55:02;34.00;53.10
21275;DHT22;36472;52.170;20.884;2023-07-29T07:57:33;34.00;51.30
21275;DHT22;36472;52.170;20.884;2023-07-29T08:00:02;34.20;52.00
21275;DHT22;36472;52.170;20.884;2023-07-29T08:02:39;34.30;51.70
21275;DHT22;36472;52.170;20.884;2023-07-29T08:05:08;34.40;51.00
21275;DHT22;36472;52.170;20.884;2023-07-29T08:07:37;34.50;50.70
21275;DHT22;36472;52.170;20.884;2023-07-29T08:10:07;34.70;51.50
21275;DHT22;36472;52.170;20.884;2023-07-29T08:12:37;34.90;49.40
21275;DHT22;36472;52.170;20.884;2023-07-29T08:15:07;34.70;50.10
21275;DHT22;36472;52.170;20.884;2023-07-29T08:17:36;34.80;50.80
21275;DHT22;36472;52.170;20.884;2023-07-29T08:20:05;34.80;50.30
21275;DHT22;36472;52.170;20.884;2023-07-29T08:22:35;34.80;50.20
21275;DHT22;36472;52.170;20.884;2023-07-29T08:25:05;34.90;50.70
21275;DHT22;36472;52.170;20.884;2023-07-29T08:27:34;34.90;50.60
21275;DHT22;36472;52.170;20.884;2023-07-29T08:30:06;35.20;48.80
21275;DHT22;36472;52.170;20.884;2023-07-29T08:32:36;35.10;47.80
21275;DHT22;36472;52.170;20.884;2023-07-29T08:35:05;35.20;49.00
21275;DHT22;36472;52.170;20.884;2023-07-29T08:37:35;35.20;49.00
21275;DHT22;36472;52.170;20.884;2023-07-29T08:40:04;35.20;48.60
21275;DHT22;36472;52.170;20.884;2023-07-29T08:42:34;35.20;48.10
21275;DHT22;36472;52.170;20.884;2023-07-29T08:45:08;35.40;49.70
21275;DHT22;36472;52.170;20.884;2023-07-29T08:47:39;35.50;46.50
21275;DHT22;36472;52.170;20.884;2023-07-29T08:50:09;35.50;46.70
21275;DHT22;36472;52.170;20.884;2023-07-29T08:52:41;35.60;47.50
21275;DHT22;36472;52.170;20.884;2023-07-29T08:55:12;35.60;48.30
21275;DHT22;36472;52.170;20.884;2023-07-29T08:57:41;35.70;47.70
21275;DHT22;36472;52.170;20.884;2023-07-29T09:00:13;35.70;47.00
21275;DHT22;36472;52.170;20.884;2023-07-29T09:02:46;35.70;47.30
21275;DHT22;36472;52.170;20.884;2023-07-29T09:05:16;35.70;46.30
21275;DHT22;36472;52.170;20.884;2023-07-29T09:07:46;35.70;45.70
21275;DHT22;36472;52.170;20.884;2023-07-29T09:10:16;35.80;45.00
21275;DHT22;36472;52.170;20.884;2023-07-29T09:12:45;35.80;45.80
21275;DHT22;36472;52.170;20.884;2023-07-29T09:15:26;35.80;45.30
21275;DHT22;36472;52.170;20.884;2023-07-29T09:17:57;35.90;46.00
21275;DHT22;36472;52.170;20.884;2023-07-29T09:20:29;36.00;46.60
21275;DHT22;36472;52.170;20.884;2023-07-29T09:22:59;36.00;45.00
21275;DHT22;36472;52.170;20.884;2023-07-29T09:25:29;36.10;45.30
21275;DHT22;36472;52.170;20.884;2023-07-29T09:27:59;36.30;45.10
21275;DHT22;36472;52.170;20.884;2023-07-29T09:30:29;36.30;44.40
21275;DHT22;36472;52.170;20.884;2023-07-29T09:32:59;36.50;47.10
21275;DHT22;36472;52.170;20.884;2023-07-29T09:35:29;36.70;46.10
21275;DHT22;36472;52.170;20.884;2023-07-29T09:38:01;36.80;46.00
21275;DHT22;36472;52.170;20.884;2023-07-29T09:40:35;36.80;44.50
21275;DHT22;36472;52.170;20.884;2023-07-29T09:43:06;36.80;44.60
21275;DHT22;36472;52.170;20.884;2023-07-29T09:45:37;36.80;44.40
21275;DHT22;36472;52.170;20.884;2023-07-29T09:48:06;36.90;44.30
21275;DHT22;36472;52.170;20.884;2023-07-29T09:50:38;36.90;44.40
21275;DHT22;36472;52.170;20.884;2023-07-29T09:53:07;37.00;43.00
21275;DHT22;36472;52.170;20.884;2023-07-29T09:55:36;37.10;43.90
21275;DHT22;36472;52.170;20.884;2023-07-29T09:58:05;37.10;44.00
21275;DHT22;36472;52.170;20.884;2023-07-29T10:00:37;37.10;43.50
21275;DHT22;36472;52.170;20.884;2023-07-29T10:03:06;37.20;43.20
21275;DHT22;36472;52.170;20.884;2023-07-29T10:05:35;37.30;42.40
21275;DHT22;36472;52.170;20.884;2023-07-29T10:08:07;37.30;42.50
21275;DHT22;36472;52.170;20.884;2023-07-29T10:10:36;37.40;43.80
21275;DHT22;36472;52.170;20.884;2023-07-29T10:13:06;37.40;44.00
21275;DHT22;36472;52.170;20.884;2023-07-29T10:15:37;37.60;42.20
21275;DHT22;36472;52.170;20.884;2023-07-29T10:18:07;37.80;42.10
21275;DHT22;36472;52.170;20.884;2023-07-29T10:20:36;37.70;42.10
21275;DHT22;36472;52.170;20.884;2023-07-29T10:23:07;37.80;43.10
21275;DHT22;36472;52.170;20.884;2023-07-29T10:25:43;37.90;41.60
21275;DHT22;36472;52.170;20.884;2023-07-29T10:28:16;38.20;41.60
21275;DHT22;36472;52.170;20.884;2023-07-29T10:30:50;38.30;42.10
21275;DHT22;36472;52.170;20.884;2023-07-29T10:33:20;38.80;40.30
21275;DHT22;36472;52.170;20.884;2023-07-29T10:35:50;38.80;40.70
21275;DHT22;36472;52.170;20.884;2023-07-29T10:38:21;39.00;40.40
21275;DHT22;36472;52.170;20.884;2023-07-29T10:40:52;39.40;39.30
21275;DHT22;36472;52.170;20.884;2023-07-29T10:43:25;39.50;39.40
21275;DHT22;36472;52.170;20.884;2023-07-29T10:45:57;39.80;38.20
21275;DHT22;36472;52.170;20.884;2023-07-29T10:48:44;39.80;38.80
21275;DHT22;36472;52.170;20.884;2023-07-29T10:51:25;40.00;40.70
21275;DHT22;36472;52.170;20.884;2023-07-29T10:53:58;40.10;37.90
21275;DHT22;36472;52.170;20.884;2023-07-29T10:56:30;40.30;38.70
21275;DHT22;36472;52.170;20.884;2023-07-29T10:59:30;40.40;38.60
21275;DHT22;36472;52.170;20.884;2023-07-29T11:02:12;40.40;39.10
21275;DHT22;36472;52.170;20.884;2023-07-29T11:04:46;40.40;38.20
21275;DHT22;36472;52.170;20.884;2023-07-29T11:07:23;40.30;37.90
21275;DHT22;36472;52.170;20.884;2023-07-29T11:10:01;40.10;37.90
21275;DHT22;36472;52.170;20.884;2023-07-29T11:12:49;40.10;37.30
21275;DHT22;36472;52.170;20.884;2023-07-29T11:15:21;40.00;39.10
21275;DHT22;36472;52.170;20.884;2023-07-29T11:17:53;39.90;38.20
21275;DHT22;36472;52.170;20.884;2023-07-29T11:20:25;39.90;38.30
21275;DHT22;36472;52.170;20.884;2023-07-29T11:22:56;39.80;39.80
21275;DHT22;36472;52.170;20.884;2023-07-29T11:25:28;39.70;39.10
21275;DHT22;36472;52.170;20.884;2023-07-29T11:27:59;39.70;39.30
21275;DHT22;36472;52.170;20.884;2023-07-29T11:30:33;39.80;38.20
21275;DHT22;36472;52.170;20.884;2023-07-29T11:33:03;39.90;38.60
21275;DHT22;36472;52.170;20.884;2023-07-29T11:35:33;39.90;40.20
21275;DHT22;36472;52.170;20.884;2023-07-29T11:38:01;40.10;38.80
21275;DHT22;36472;52.170;20.884;2023-07-29T11:40:31;40.20;37.90
21275;DHT22;36472;52.170;20.884;2023-07-29T11:42:59;40.30;37.80
21275;DHT22;36472;52.170;20.884;2023-07-29T11:45:28;40.40;37.70
21275;DHT22;36472;52.170;20.884;2023-07-29T11:48:14;40.40;38.10
21275;DHT22;36472;52.170;20.884;2023-07-29T11:50:43;40.40;37.90
21275;DHT22;36472;52.170;20.884;2023-07-29T11:53:13;40.30;36.90
21275;DHT22;36472;52.170;20.884;2023-07-29T11:55:44;40.30;36.70
21275;DHT22;36472;52.170;20.884;2023-07-29T11:58:13;40.40;36.90
21275;DHT22;36472;52.170;20.884;2023-07-29T12:00:44;40.30;37.00
21275;DHT22;36472;52.170;20.884;2023-07-29T12:03:15;40.30;37.90
21275;DHT22;36472;52.170;20.884;2023-07-29T12:05:46;40.10;36.90
21275;DHT22;36472;52.170;20.884;2023-07-29T12:08:16;40.00;38.00
21275;DHT22;36472;52.170;20.884;2023-07-29T12:10:46;40.00;37.70
21275;DHT22;36472;52.170;20.884;2023-07-29T12:13:15;39.90;38.20
21275;DHT22;36472;52.170;20.884;2023-07-29T12:15:44;39.90;38.00
21275;DHT22;36472;52.170;20.884;2023-07-29T12:18:14;39.80;38.20
21275;DHT22;36472;52.170;20.884;2023-07-29T12:20:44;39.70;38.30
21275;DHT22;36472;52.170;20.884;2023-07-29T12:23:13;39.70;38.60
21275;DHT22;36472;52.170;20.884;2023-07-29T12:25:42;39.50;40.00
21275;DHT22;36472;52.170;20.884;2023-07-29T12:28:11;39.60;37.90
21275;DHT22;36472;52.170;20.884;2023-07-29T12:30:41;39.30;38.40
21275;DHT22;36472;52.170;20.884;2023-07-29T12:33:10;39.20;38.60
21275;DHT22;36472;52.170;20.884;2023-07-29T12:35:41;39.10;39.70
21275;DHT22;36472;52.170;20.884;2023-07-29T12:38:10;39.10;40.70
21275;DHT22;36472;52.170;20.884;2023-07-29T12:40:39;39.20;39.30
21275;DHT22;36472;52.170;20.884;2023-07-29T12:43:09;39.10;39.90
21275;DHT22;36472;52.170;20.884;2023-07-29T12:45:38;39.10;39.50
21275;DHT22;36472;52.170;20.884;2023-07-29T12:48:08;39.00;39.90
21275;DHT22;36472;52.170;20.884;2023-07-29T12:50:38;39.00;39.30
21275;DHT22;36472;52.170;20.884;2023-07-29T12:53:09;39.00;39.50
21275;DHT22;36472;52.170;20.884;2023-07-29T12:55:38;39.20;38.70
21275;DHT22;36472;52.170;20.884;2023-07-29T12:58:07;39.10;39.10
21275;DHT22;36472;52.170;20.884;2023-07-29T13:00:36;39.00;39.20
21275;DHT22;36472;52.170;20.884;2023-07-29T13:03:05;39.00;39.60
21275;DHT22;36472;52.170;20.884;2023-07-29T13:05:35;39.00;39.90
21275;DHT22;36472;52.170;20.884;2023-07-29T13:08:03;38.90;39.30
21275;DHT22;36472;52.170;20.884;2023-07-29T13:10:34;38.90;40.10
21275;DHT22;36472;52.170;20.884;2023-07-29T13:13:03;38.90;39.70
21275;DHT22;36472;52.170;20.884;2023-07-29T13:15:32;39.00;39.80
21275;DHT22;36472;52.170;20.884;2023-07-29T13:18:00;39.00;39.70
21275;DHT22;36472;52.170;20.884;2023-07-29T13:20:29;39.00;40.40
21275;DHT22;36472;52.170;20.884;2023-07-29T13:23:01;39.00;39.60
21275;DHT22;36472;52.170;20.884;2023-07-29T13:25:30;39.00;39.80
21275;DHT22;36472;52.170;20.884;2023-07-29T13:28:00;39.10;40.00
21275;DHT22;36472;52.170;20.884;2023-07-29T13:30:30;39.10;40.50
21275;DHT22;36472;52.170;20.884;2023-07-29T13:32:59;39.10;40.50
21275;DHT22;36472;52.170;20.884;2023-07-29T13:35:29;39.10;39.80
21275;DHT22;36472;52.170;20.884;2023-07-29T13:37:58;39.20;39.70
21275;DHT22;36472;52.170;20.884;2023-07-29T13:40:28;39.30;39.80
21275;DHT22;36472;52.170;20.884;2023-07-29T13:42:57;39.30;39.80
21275;DHT22;36472;52.170;20.884;2023-07-29T13:45:27;39.40;39.50
21275;DHT22;36472;52.170;20.884;2023-07-29T13:47:56;39.10;38.80
21275;DHT22;36472;52.170;20.884;2023-07-29T13:50:25;39.20;39.20
21275;DHT22;36472;52.170;20.884;2023-07-29T13:52:54;39.30;39.90
21275;DHT22;36472;52.170;20.884;2023-07-29T13:55:23;39.30;40.10
21275;DHT22;36472;52.170;20.884;2023-07-29T13:57:52;39.40;39.40
21275;DHT22;36472;52.170;20.884;2023-07-29T14:00:22;39.40;39.60
21275;DHT22;36472;52.170;20.884;2023-07-29T14:02:52;39.40;39.60
21275;DHT22;36472;52.170;20.884;2023-07-29T14:05:22;39.50;39.60
21275;DHT22;36472;52.170;20.884;2023-07-29T14:07:51;39.60;39.50
21275;DHT22;36472;52.170;20.884;2023-07-29T14:10:20;39.60;39.90
21275;DHT22;36472;52.170;20.884;2023-07-29T14:12:49;39.60;39.40
21275;DHT22;36472;52.170;20.884;2023-07-29T14:15:18;39.60;38.80
21275;DHT22;36472;52.170;20.884;2023-07-29T14:17:47;39.60;39.30
21275;DHT22;36472;52.170;20.884;2023-07-29T14:20:17;39.70;38.90
21275;DHT22;36472;52.170;20.884;2023-07-29T14:22:48;39.60;39.30
21275;DHT22;36472;52.170;20.884;2023-07-29T14:25:18;39.50;39.10
21275;DHT22;36472;52.170;20.884;2023-07-29T14:27:46;39.60;39.30
21275;DHT22;36472;52.170;20.884;2023-07-29T14:30:16;39.60;39.50
21275;DHT22;36472;52.170;20.884;2023-07-29T14:32:44;39.60;39.20
21275;DHT22;36472;52.170;20.884;2023-07-29T14:35:14;39.60;40.50
21275;DHT22;36472;52.170;20.884;2023-07-29T14:37:44;39.60;40.00
21275;DHT22;36472;52.170;20.884;2023-07-29T14:40:13;39.70;39.50
21275;DHT22;36472;52.170;20.884;2023-07-29T14:42:42;39.70;39.60
21275;DHT22;36472;52.170;20.884;2023-07-29T14:45:11;39.70;39.40
21275;DHT22;36472;52.170;20.884;2023-07-29T14:47:40;39.80;39.80
21275;DHT22;36472;52.170;20.884;2023-07-29T14:50:09;39.80;39.90
21275;DHT22;36472;52.170;20.884;2023-07-29T14:52:38;39.80;39.50
21275;DHT22;36472;52.170;20.884;2023-07-29T14:55:08;39.80;39.70
21275;DHT22;36472;52.170;20.884;2023-07-29T14:57:37;39.80;39.20
21275;DHT22;36472;52.170;20.884;2023-07-29T15:00:09;39.70;38.90
21275;DHT22;36472;52.170;20.884;2023-07-29T15:02:40;39.80;39.40
21275;DHT22;36472;52.170;20.884;2023-07-29T15:05:09;39.80;39.60
21275;DHT22;36472;52.170;20.884;2023-07-29T15:07:38;39.90;39.40
21275;DHT22;36472;52.170;20.884;2023-07-29T15:10:09;40.00;39.30
21275;DHT22;36472;52.170;20.884;2023-07-29T15:12:38;39.90;39.00
21275;DHT22;36472;52.170;20.884;2023-07-29T15:15:08;39.80;39.30
21275;DHT22;36472;52.170;20.884;2023-07-29T15:17:38;39.80;39.20
21275;DHT22;36472;52.170;20.884;2023-07-29T15:20:08;39.80;40.00
21275;DHT22;36472;52.170;20.884;2023-07-29T15:22:38;39.90;39.40
21275;DHT22;36472;52.170;20.884;2023-07-29T15:25:09;39.90;39.60
21275;DHT22;36472;52.170;20.884;2023-07-29T15:27:38;39.90;39.40
21275;DHT22;36472;52.170;20.884;2023-07-29T15:30:08;39.90;39.40
21275;DHT22;36472;52.170;20.884;2023-07-29T15:32:39;39.90;39.30
21275;DHT22;36472;52.170;20.884;2023-07-29T15:35:09;39.90;40.40